Neshkoro, Wisconsin
Current Conditions -  °F | °C
As of 1:56 PM on Thursday 29 Jan 2015 (Local Time) from KY50 Reporting Station
Overcast Overcast  
Wind Chill: -4°   Ceiling: 3000
Heat Index:   Visibility: 10mi
Dew Point: -4°   Wind: 17mph
Humidity: 65%   Direction: 320°NW
Pressure: 30.01"   Gusts: 25mph
Location:  43.97°N, 89.22°W
Report Text: KY50 291956Z AUTO 32015G22KT 10SM OVC030 02/M04 A3001 RMK AO2 TSNO T00161044 SLP167
Loading
Personal Weather Stations






























Interactive Weather Map New forecast layout! Learn more

10-Day Weather Forecast

Advertisements
Track Severe Weather on mobile